Latest Weather Observations for Swan Hill

IDV60801

Issued at 6:32 pm EDT Tuesday 17 October 2017 (issued every 30 minutes, with the page automatically refreshed every 10 minutes)

About weather observations | Map of weather stations | Latest weather observations for VIC | Other Formats
Station Details ID: 077094 Name: SWAN HILL AERODROME Lat: -35.38 Lon: 143.54 Height: 71.0 m
Data from the previous 72 hours. | See also: Recent months at Swan Hill
Date/Time
EDT
Temp
°C
App
Temp
°C
Dew
Point
°C
Rel
Hum
%
Delta-T
°C
Wind Press
QNH
hPa
Press
MSL
hPa
Rain since
9am
mm
Dir  Spd
km/h
Gust
km/h
Spd
kts
Gust
kts
17/06:30pm 30.6 26.4 3.6 18 13.8 NE 15 19 8 10 1017.9 1017.9 0.0
17/06:00pm 31.3 26.3 1.6 15 14.7 NE 17 28 9 15 1018.0 1018.0 0.0
17/05:30pm 31.8 27.3 2.0 15 14.9 ENE 15 22 8 12 1017.9 1017.9 0.0
17/05:00pm 32.1 27.2 2.2 15 15.0 NNE 17 28 9 15 1017.9 1017.9 0.0
17/04:30pm 32.0 27.1 2.1 15 15.0 NE 17 24 9 13 1018.0 1018.0 0.0
17/04:00pm 32.2 26.8 1.3 14 15.3 NE 19 28 10 15 1018.3 1018.2 0.0
17/03:30pm 31.8 27.0 0.0 13 15.4 NE 15 22 8 12 1018.5 1018.4 0.0
17/03:00pm 31.7 26.3 1.0 14 15.1 NE 19 33 10 18 1018.8 1018.7 0.0
17/02:30pm 31.9 26.4 2.1 15 15.0 NE 20 37 11 20 1019.4 1019.3 0.0
17/02:00pm 31.5 26.7 2.7 16 14.5 NNE 17 26 9 14 1019.6 1019.5 0.0
17/01:30pm 31.7 26.2 1.9 15 14.9 NE 20 30 11 16 1020.0 1019.9 0.0
17/01:00pm 31.0 25.6 2.3 16 14.4 NNE 20 32 11 17 1020.4 1020.3 0.0
17/12:30pm 30.2 25.3 4.0 19 13.5 NE 19 35 10 19 1020.5 1020.4 0.0
17/12:00pm 29.0 24.2 4.5 21 12.6 NE 19 28 10 15 1021.1 1021.0 0.0
17/11:30am 28.6 24.5 6.1 24 11.9 NE 17 24 9 13 1021.6 1021.5 0.0
17/11:00am 27.3 22.8 6.1 26 11.1 NE 19 28 10 15 1021.9 1021.8 0.0
17/10:30am 25.3 20.6 6.0 29 10.0 NNE 20 28 11 15 1022.2 1022.1 0.0
17/10:00am 24.6 19.5 5.9 30 9.6 NNE 22 28 12 15 1022.2 1022.1 0.0
17/09:30am 22.7 17.8 5.2 32 8.8 NE 20 26 11 14 1022.2 1022.1 0.0
17/09:00am 21.0 16.7 5.4 36 7.7 NE 17 22 9 12 1022.2 1022.1 0.0
17/08:30am 18.5 14.7 5.7 43 6.3 NE 15 19 8 10 1022.0 1021.9 0.0
17/08:00am 15.9 12.2 4.6 47 5.3 NE 13 17 7 9 1021.7 1021.6 0.0
17/07:30am 13.9 11.1 5.0 55 4.2 ESE 9 13 5 7 1021.5 1021.4 0.0
17/07:00am 12.2 9.9 4.7 60 3.4 ESE 6 7 3 4 1021.0 1020.9 0.0
17/06:30am 12.1 9.6 4.8 61 3.3 ESE 7 9 4 5 1020.7 1020.6 0.0
17/06:00am 12.0 9.6 4.5 60 3.4 ESE 6 9 3 5 1020.4 1020.3 0.0
17/05:30am 11.2 8.8 4.2 62 3.1 ESE 6 7 3 4 1020.3 1020.2 0.0
17/05:00am 12.0 9.6 4.2 59 3.5 ESE 6 7 3 4 1020.3 1020.2 0.0
17/04:30am 12.4 10.0 4.1 57 3.8 ESE 6 7 3 4 1020.3 1020.2 0.0
17/04:00am 15.4 12.3 3.5 45 5.4 E 9 11 5 6 1020.3 1020.2 0.0
17/03:30am 15.6 12.1 3.4 44 5.6 E 11 13 6 7 1020.4 1020.3 0.0
17/03:00am 16.9 13.0 3.2 40 6.3 ENE 13 19 7 10 1020.5 1020.4 0.0
17/02:30am 16.4 12.6 3.8 43 5.9 E 13 15 7 8 1020.6 1020.5 0.0
17/02:00am 16.8 13.1 4.2 43 5.9 ENE 13 15 7 8 1020.9 1020.8 0.0
17/01:30am 17.1 13.8 4.8 44 5.9 ENE 11 13 6 7 1021.4 1021.3 0.0
17/01:00am 16.9 14.0 4.9 45 5.7 ENE 9 11 5 6 1021.5 1021.4 0.0
17/12:30am 18.0 14.8 4.9 42 6.3 ENE 11 13 6 7 1021.8 1021.7 0.0
17/12:00am 19.1 15.4 4.5 38 7.0 ENE 13 15 7 8 1021.8 1021.7 0.0
 
Date/Time
EDT
Temp
°C
App
Temp
°C
Dew
Point
°C
Rel
Hum
%
Delta-T
°C
Wind Press
QNH
hPa
Press
MSL
hPa
Rain since
9am
mm
Dir  Spd
km/h
Gust
km/h
Spd
kts
Gust
kts
16/11:30pm 20.2 16.5 4.7 36 7.5 ENE 13 17 7 9 1021.8 1021.7 0.0
16/11:00pm 21.4 17.8 4.9 34 8.1 ENE 13 19 7 10 1021.6 1021.5 0.0
16/10:30pm 22.1 18.7 5.9 35 8.2 E 13 20 7 11 1021.4 1021.3 0.0
16/10:00pm 22.6 19.8 6.8 36 8.1 E 11 17 6 9 1021.3 1021.2 0.0
16/09:30pm 23.2 20.1 7.3 36 8.3 E 13 17 7 9 1021.0 1020.9 0.0
16/09:00pm 23.6 20.5 7.3 35 8.5 E 13 17 7 9 1020.5 1020.4 0.0
16/08:30pm 23.3 20.9 7.0 35 8.5 ESE 9 13 5 7 1020.1 1020.0 0.0
16/08:00pm 24.9 22.4 6.6 31 9.5 E 9 15 5 8 1019.7 1019.6 0.0
16/07:30pm 26.7 24.2 6.7 28 10.5 E 9 13 5 7 1019.6 1019.5 0.0
16/07:00pm 28.3 25.1 7.0 26 11.4 ENE 13 17 7 9 1019.4 1019.3 0.0
16/06:30pm 28.9 26.0 6.3 24 12.0 E 11 20 6 11 1019.3 1019.2 0.0
16/06:00pm 30.1 26.5 6.7 23 12.5 E 15 22 8 12 1019.2 1019.1 0.0
16/05:30pm 29.8 26.1 6.5 23 12.5 E 15 26 8 14 1019.1 1019.0 0.0
16/05:00pm 30.5 27.0 7.0 23 12.7 ENE 15 22 8 12 1019.2 1019.1 0.0
16/04:30pm 31.0 27.8 6.8 22 13.1 E 13 22 7 12 1019.4 1019.3 0.0
16/04:00pm 29.5 25.9 6.8 24 12.1 E 15 22 8 12 1019.7 1019.6 0.0
16/03:30pm 30.6 27.6 7.7 24 12.5 ENE 13 20 7 11 1020.0 1019.9 0.0
16/03:00pm 30.8 27.8 7.9 24 12.6 ENE 13 24 7 13 1020.3 1020.2 0.0
16/02:30pm 30.2 28.2 8.6 26 12.0 NE 9 15 5 8 1020.8 1020.7 0.0
16/02:00pm 30.1 27.7 8.5 26 11.9 ENE 11 20 6 11 1021.0 1020.9 0.0
16/01:30pm 29.6 26.2 9.2 28 11.4 NE 17 32 9 17 1021.3 1021.2 0.0
16/01:00pm 29.0 26.3 10.2 31 10.6 NNE 15 22 8 12 1021.7 1021.6 0.0
16/12:30pm 28.2 25.4 9.9 32 10.3 NNE 15 22 8 12 1022.2 1022.1 0.0
16/12:00pm 27.7 25.3 10.0 33 9.9 NE 13 20 7 11 1022.7 1022.6 0.0
16/11:30am 26.4 23.9 9.7 35 9.3 NE 13 20 7 11 1023.2 1023.1 0.0
16/11:00am 25.3 22.4 9.6 37 8.6 NE 15 20 8 11 1023.3 1023.2 0.0
16/10:30am 23.9 21.1 9.9 41 7.7 NE 15 20 8 11 1023.6 1023.5 0.0
16/10:00am 22.7 19.5 9.8 44 7.0 NE 17 22 9 12 1023.7 1023.6 0.0
16/09:30am 21.6 18.9 10.4 49 6.1 ENE 15 22 8 12 1023.6 1023.5 0.0
16/09:00am 19.1 17.3 10.9 59 4.4 E 11 17 6 9 1023.6 1023.5 0.0
16/08:30am 16.7 14.3 10.1 65 3.5 ESE 13 17 7 9 1023.6 1023.5 0.0
16/08:00am 13.6 12.0 10.2 80 1.8 SE 9 11 5 6 1023.4 1023.3 0.0
16/07:30am 11.1 9.3 9.5 90 0.8 SSE 9 13 5 7 1023.2 1023.1 0.0
16/07:00am 9.4 6.9 8.0 91 0.7 SE 11 13 6 7 1023.0 1022.9 0.0
16/06:30am 9.2 6.6 7.6 90 0.8 SSE 11 13 6 7 1022.5 1022.4 0.0
16/06:00am 9.5 7.3 7.8 89 0.8 SE 9 9 5 5 1022.3 1022.2 0.0
16/05:30am 10.0 7.8 7.9 87 1.0 SSE 9 11 5 6 1022.0 1021.9 0.0
16/05:00am 10.7 8.3 8.6 87 1.0 SE 11 15 6 8 1021.7 1021.6 0.0
16/04:30am 10.8 8.4 8.6 86 1.1 SE 11 13 6 7 1021.6 1021.5 0.0
16/04:00am 10.9 8.8 8.1 83 1.4 SSE 9 13 5 7 1021.7 1021.6 0.0
16/03:30am 11.2 8.7 8.2 82 1.5 SSE 11 13 6 7 1021.6 1021.5 0.0
16/03:00am 11.5 9.4 8.2 80 1.6 SE 9 11 5 6 1021.6 1021.5 0.0
16/02:30am 12.1 9.6 8.2 77 1.9 SSE 11 13 6 7 1021.5 1021.4 0.0
16/02:00am 12.6 9.8 8.7 77 1.9 SSE 13 19 7 10 1021.6 1021.5 0.0
16/01:30am 12.9 10.4 8.4 74 2.2 SE 11 13 6 7 1021.6 1021.5 0.0
16/01:00am 13.7 11.8 9.0 73 2.4 SE 9 11 5 6 1021.8 1021.7 0.0
16/12:30am 14.4 12.4 8.8 69 2.8 SE 9 11 5 6 1021.7 1021.6 0.0
16/12:00am 14.8 12.8 8.5 66 3.2 SE 9 11 5 6 1021.7 1021.6 0.0
 
Date/Time
EDT
Temp
°C
App
Temp
°C
Dew
Point
°C
Rel
Hum
%
Delta-T
°C
Wind Press
QNH
hPa
Press
MSL
hPa
Rain since
9am
mm
Dir  Spd
km/h
Gust
km/h
Spd
kts
Gust
kts
15/11:30pm 15.6 13.2 8.8 64 3.5 SSE 11 13 6 7 1021.6 1021.5 0.0
15/11:00pm 16.3 14.3 8.8 61 3.8 SE 9 13 5 7 1021.6 1021.5 0.0
15/10:30pm 16.5 14.4 8.2 58 4.2 SE 9 13 5 7 1021.4 1021.3 0.0
15/10:00pm 16.8 15.0 8.0 56 4.5 SE 7 11 4 6 1021.3 1021.2 0.0
15/09:30pm 18.0 15.8 7.7 51 5.2 SSE 9 11 5 6 1021.3 1021.2 0.0
15/09:00pm 19.0 16.7 7.4 47 5.9 SSE 9 13 5 7 1021.0 1020.9 0.0
15/08:30pm 19.8 17.4 7.2 44 6.4 SSE 9 11 5 6 1020.7 1020.6 0.0
15/08:00pm 21.1 18.8 7.3 41 7.1 SSE 9 11 5 6 1020.4 1020.3 0.0
15/07:30pm 23.2 20.8 6.9 35 8.4 SSE 9 13 5 7 1020.3 1020.2 0.0
15/07:00pm 25.2 22.2 5.9 29 9.9 SE 11 17 6 9 1020.0 1019.9 0.0
15/06:30pm 26.5 23.1 6.0 27 10.7 SE 13 19 7 10 1019.9 1019.8 0.0
15/06:00pm 26.8 23.6 5.1 25 11.1 SE 11 22 6 12 1019.9 1019.8 0.0
15/05:30pm 27.1 23.7 6.0 26 11.0 SE 13 22 7 12 1019.8 1019.7 0.0
15/05:00pm 27.6 24.6 5.8 25 11.3 SSE 11 19 6 10 1019.9 1019.8 0.0
15/04:30pm 27.2 23.8 6.0 26 11.1 SSE 13 20 7 11 1020.1 1020.0 0.0
15/04:00pm 27.2 24.7 6.6 27 10.8 SSE 9 20 5 11 1020.2 1020.1 0.0
15/03:30pm 27.1 24.7 7.0 28 10.7 E 9 17 5 9 1020.4 1020.3 0.0
15/03:00pm 27.1 24.4 7.5 29 10.5 SE 11 17 6 9 1020.7 1020.6 0.0
15/02:30pm 27.4 24.8 7.8 29 10.6 SE 11 19 6 10 1021.1 1021.0 0.0
15/02:00pm 26.1 22.6 7.2 30 10.0 SE 15 22 8 12 1021.5 1021.4 0.0
15/01:30pm 25.9 23.4 8.4 33 9.5 ESE 11 19 6 10 1021.8 1021.7 0.0
15/01:00pm 24.6 22.8 9.3 38 8.3 ESE 9 17 5 9 1022.0 1021.9 0.0
15/12:30pm 23.9 21.5 9.9 41 7.7 E 13 24 7 13 1022.3 1022.2 0.0
15/12:00pm 22.4 20.3 9.6 44 6.9 ESE 11 17 6 9 1022.7 1022.6 0.0
15/11:30am 21.8 19.3 9.7 46 6.5 ESE 13 19 7 10 1023.0 1022.9 0.0
15/11:00am 20.5 18.3 9.4 49 5.9 E 11 17 6 9 1023.4 1023.3 0.0
15/10:30am 18.5 16.4 8.2 51 5.3 E 9 19 5 10 1023.5 1023.4 0.0
15/10:00am 16.7 14.1 7.6 55 4.6 SE 11 19 6 10 1023.5 1023.4 0.0
15/09:30am 14.7 10.7 6.8 59 3.9 SE 17 20 9 11 1023.4 1023.3 0.0
15/09:00am 13.3 9.6 6.2 62 3.4 SE 15 22 8 12 1023.4 1023.3 0.0
15/08:30am 11.4 7.5 5.3 66 2.8 SE 15 22 8 12 1023.3 1023.2 0.0
15/08:00am 9.2 6.0 5.0 75 1.9 SSE 11 17 6 9 1023.1 1023.0 0.0
15/07:30am 7.0 4.0 4.1 82 1.3 SSE 9 13 5 7 1022.7 1022.6 0.0
15/07:00am 5.8 2.2 3.1 83 1.1 SE 11 15 6 8 1022.6 1022.5 0.0
15/06:30am 5.9 2.0 3.2 83 1.1 SSE 13 15 7 8 1022.0 1021.9 0.0
15/06:00am 5.9 2.0 3.2 83 1.1 SSE 13 17 7 9 1022.0 1021.9 0.0
15/05:30am 5.9 2.0 3.2 83 1.1 SSE 13 15 7 8 1022.0 1021.9 0.0
15/05:00am 6.2 2.7 3.4 82 1.2 SSE 11 13 6 7 1022.0 1021.9 0.0
15/04:30am 6.7 3.5 3.3 79 1.4 SSE 9 13 5 7 1022.0 1021.9 0.0
15/04:00am 6.8 3.3 3.4 79 1.4 SSE 11 13 6 7 1022.0 1021.9 0.0
15/03:30am 7.1 3.6 3.7 79 1.5 SE 11 15 6 8 1022.2 1022.1 0.0
15/03:00am 7.6 4.2 3.8 77 1.6 SSE 11 17 6 9 1022.0 1021.9 0.0
15/02:30am 8.2 4.8 3.9 74 1.9 SSE 11 15 6 8 1022.2 1022.1 0.0
15/02:00am 8.6 5.3 4.4 75 1.8 SSE 11 13 6 7 1022.4 1022.3 0.0
15/01:30am 9.7 6.5 4.9 72 2.2 SSE 11 15 6 8 1022.6 1022.5 0.0
15/01:00am 9.8 6.6 5.2 73 2.1 SSE 11 15 6 8 1022.6 1022.5 0.0
15/12:30am 10.1 6.9 5.3 72 2.2 SSE 11 13 6 7 1022.4 1022.3 0.0
15/12:00am 11.1 7.9 5.2 67 2.7 SSE 11 17 6 9 1022.5 1022.4 0.0
 
Date/Time
EDT
Temp
°C
App
Temp
°C
Dew
Point
°C
Rel
Hum
%
Delta-T
°C
Wind Press
QNH
hPa
Press
MSL
hPa
Rain since
9am
mm
Dir  Spd
km/h
Gust
km/h
Spd
kts
Gust
kts
14/11:30pm 11.7 8.1 5.1 64 3.0 SSE 13 17 7 9 1022.3 1022.2 0.0
14/11:00pm 12.7 9.1 5.1 60 3.5 SSE 13 17 7 9 1022.2 1022.1 0.0
14/10:30pm 13.1 9.5 4.8 57 3.8 S 13 17 7 9 1022.2 1022.1 0.0
14/10:00pm 14.0 10.8 4.9 54 4.2 S 11 17 6 9 1022.0 1021.9 0.0
14/09:30pm 14.6 11.4 5.1 53 4.5 S 11 17 6 9 1021.9 1021.8 0.0
14/09:00pm 15.2 12.1 5.4 52 4.6 S 11 15 6 8 1021.9 1021.8 0.0
14/08:30pm 16.0 12.8 5.3 49 5.1 SSW 11 13 6 7 1021.6 1021.5 0.0
14/08:00pm 17.8 15.1 5.4 44 6.0 S 9 13 5 7 1021.3 1021.2 0.0
14/07:30pm 19.8 16.6 5.1 38 7.2 SSW 11 17 6 9 1021.2 1021.1 0.0
14/07:00pm 21.4 17.4 4.9 34 8.1 S 15 24 8 13 1020.9 1020.8 0.0

Other Formats:

Comma delimited format used in spreadsheet applications
http://www.bom.gov.au/fwo/IDV60801/IDV60801.94843.axf

JavaScript Object Notation format (JSON) in row-major order
http://www.bom.gov.au/fwo/IDV60801/IDV60801.94843.json